Time;durP1;ratioP1;P1;durP2;ratioP2;P2;SDS_P1;SDS_P2;PMS_P1;PMS_P2;Temp;Humidity;BMP_temperature;BMP_pressure;BME280_temperature;BME280_humidity;BME280_pressure;Samples;Min_cycle;Max_cycle;Signal;HPM_P1;HPM_P2
2022/10/08 00:01:06;;;;;;;0.30;0.30;;;;;;;10.92;79.62;100452.41;5012993;28;20581;-73
2022/10/08 00:03:35;;;;;;;0.40;0.40;;;;;;;10.64;80.87;100447.09;5012697;28;20188;-73
2022/10/08 00:06:00;;;;;;;0.40;0.40;;;;;;;10.44;82.44;100447.63;5012020;28;20656;-73
2022/10/08 00:08:28;;;;;;;0.10;0.10;;;;;;;10.31;83.33;100453.94;5012505;28;20264;-73
2022/10/08 00:11:12;;;;;;;0.00;0.00;;;;;;;10.03;84.45;100447.72;5011545;28;20633;-74
2022/10/08 00:13:39;;;;;;;0.50;0.50;;;;;;;10.25;84.60;100444.22;5017302;28;20215;-74
2022/10/08 00:16:11;;;;;;;2.10;0.70;;;;;;;10.41;83.77;100456.41;5020997;28;20311;-74
2022/10/08 00:18:38;;;;;;;0.53;0.40;;;;;;;10.53;83.51;100451.19;5013657;28;20177;-73
2022/10/08 00:21:13;;;;;;;0.43;0.43;;;;;;;10.67;82.17;100446.47;5013099;28;20223;-74
2022/10/08 00:23:39;;;;;;;2.10;0.20;;;;;;;10.84;81.03;100455.88;5012797;28;20185;-74
2022/10/08 00:26:05;;;;;;;0.00;0.00;;;;;;;10.85;81.30;100443.84;5012835;28;20184;-73
2022/10/08 00:28:32;;;;;;;0.53;0.53;;;;;;;10.76;81.80;100454.75;5012888;28;20172;-74
2022/10/08 00:31:05;;;;;;;0.10;0.10;;;;;;;10.56;82.27;100441.56;5011484;28;20172;-74
2022/10/08 00:33:30;;;;;;;0.00;0.00;;;;;;;10.38;83.69;100452.38;5012476;28;20215;-74
2022/10/08 00:35:59;;;;;;;1.40;1.37;;;;;;;10.26;84.95;100443.13;5012270;28;20181;-73
2022/10/08 00:38:25;;;;;;;0.00;0.00;;;;;;;10.28;84.82;100436.25;5012568;28;20180;-73
2022/10/08 00:40:50;;;;;;;5.40;3.00;;;;;;;10.32;84.57;100439.16;5012443;28;20176;-74
2022/10/08 00:43:16;;;;;;;0.00;0.00;;;;;;;10.37;84.40;100433.56;5027869;28;20187;-74
2022/10/08 00:45:44;;;;;;;19.07;0.57;;;;;;;10.37;84.24;100436.31;5012221;28;20188;-74
2022/10/08 00:48:19;;;;;;;0.00;0.00;;;;;;;10.37;84.31;100428.09;5012348;28;20180;-74
2022/10/08 00:50:46;;;;;;;0.00;0.00;;;;;;;10.31;84.92;100430.16;5012303;28;20626;-74
2022/10/08 00:53:11;;;;;;;0.20;0.17;;;;;;;10.26;85.00;100426.72;5012048;28;20303;-74
2022/10/08 00:55:39;;;;;;;0.03;0.03;;;;;;;10.23;85.38;100427.34;5012150;28;20256;-74
2022/10/08 00:58:15;;;;;;;0.20;0.20;;;;;;;10.14;85.71;100425.34;5011950;28;20664;-74
2022/10/08 01:00:40;;;;;;;0.00;0.00;;;;;;;10.04;86.45;100414.66;5011950;28;20575;-74
2022/10/08 01:03:06;;;;;;;0.00;0.00;;;;;;;9.96;86.83;100415.38;5027011;28;20200;-74
2022/10/08 01:06:19;;;;;;;0.00;0.00;;;;;;;9.91;87.80;100409.25;5029797;28;20917;-73
2022/10/08 01:09:01;;;;;;;3.40;0.57;;;;;;;9.97;87.78;100399.81;5031521;28;20190;-74
2022/10/08 01:11:52;;;;;;;0.00;0.00;;;;;;;9.96;87.94;100407.19;5031782;28;20571;-74
2022/10/08 01:14:46;;;;;;;0.00;0.00;;;;;;;10.03;87.65;100404.06;5031605;28;20215;-74
2022/10/08 01:17:24;;;;;;;1.30;0.93;;;;;;;10.17;87.63;100413.00;5030314;28;20636;-73
2022/10/08 01:20:12;;;;;;;0.00;0.00;;;;;;;10.38;86.16;100400.47;5031535;28;20194;-74
2022/10/08 01:22:53;;;;;;;0.20;0.20;;;;;;;10.40;86.02;100403.72;5029835;28;20808;-74
2022/10/08 01:25:32;;;;;;;0.07;0.07;;;;;;;10.53;85.71;100406.69;5027944;28;20292;-74
2022/10/08 01:28:29;;;;;;;0.63;0.60;;;;;;;10.56;85.41;100400.59;5011428;28;20165;-73
2022/10/08 01:31:11;;;;;;;0.20;0.20;;;;;;;10.67;84.85;100408.22;5004771;28;20227;-73
2022/10/08 01:33:44;;;;;;;7.10;1.30;;;;;;;10.72;84.49;100404.56;5011336;28;20204;-74
2022/10/08 01:36:13;;;;;;;0.00;0.00;;;;;;;10.73;84.43;100404.25;5011200;28;20181;-74
2022/10/08 01:38:43;;;;;;;0.10;0.10;;;;;;;10.69;84.25;100405.16;5011252;28;20271;-74
2022/10/08 01:41:11;;;;;;;1.30;0.67;;;;;;;10.67;84.77;100401.94;5010094;28;20187;-73
2022/10/08 01:43:45;;;;;;;2.80;0.60;;;;;;;10.69;84.43;100403.25;5011325;28;20176;-73
2022/10/08 01:46:26;;;;;;;12.37;2.47;;;;;;;10.72;84.88;100399.09;5011022;28;20172;-74
2022/10/08 01:48:58;;;;;;;1.07;0.33;;;;;;;10.68;84.78;100398.09;5011276;28;20172;-74
2022/10/08 01:51:34;;;;;;;0.00;0.00;;;;;;;10.66;85.05;100394.88;5011085;28;20711;-73
2022/10/08 01:54:07;;;;;;;0.17;0.17;;;;;;;10.75;84.43;100400.41;5026141;28;20289;-73
2022/10/08 01:56:37;;;;;;;5.00;0.97;;;;;;;10.73;84.64;100393.31;5011031;28;20203;-74
2022/10/08 01:59:08;;;;;;;0.10;0.10;;;;;;;10.66;84.98;100392.13;5011046;28;20227;-74
2022/10/08 02:01:44;;;;;;;0.07;0.00;;;;;;;10.63;84.77;100385.38;5011029;28;20596;-74
2022/10/08 02:06:56;;;;;;;1.63;0.87;;;;;;;10.55;85.79;100394.31;5010833;28;20651;-73
2022/10/08 02:09:27;;;;;;;1.30;1.30;;;;;;;10.55;85.81;100391.59;5010923;28;20193;-73
2022/10/08 02:11:52;;;;;;;0.97;0.60;;;;;;;10.60;85.76;100398.88;5010833;28;20176;-73
2022/10/08 02:14:24;;;;;;;2.50;0.20;;;;;;;10.51;85.66;100393.34;5025951;28;20564;-73
2022/10/08 02:17:04;;;;;;;0.00;0.00;;;;;;;10.49;86.30;100395.59;5010807;28;20176;-74
2022/10/08 02:19:53;;;;;;;1.07;1.07;;;;;;;10.54;86.12;100402.84;5029272;28;20490;-74
2022/10/08 02:22:25;;;;;;;0.00;0.00;;;;;;;10.57;86.06;100400.31;5030535;28;20160;-74
2022/10/08 02:25:07;;;;;;;0.00;0.00;;;;;;;10.56;86.27;100406.06;5030536;28;20175;-74
2022/10/08 02:27:51;;;;;;;1.77;0.87;;;;;;;10.68;85.81;100400.81;5031596;28;20664;-74
2022/10/08 02:30:18;;;;;;;0.47;0.37;;;;;;;10.76;85.26;100400.09;5034621;28;20270;-73
2022/10/08 02:32:51;;;;;;;1.53;1.43;;;;;;;10.80;84.92;100394.78;5034347;28;20206;-74
2022/10/08 02:35:25;;;;;;;3.57;0.67;;;;;;;10.77;84.57;100393.50;5034276;28;20209;-73
2022/10/08 02:37:59;;;;;;;3.10;0.80;;;;;;;10.73;84.87;100392.50;5034230;28;20171;-74
2022/10/08 02:40:27;;;;;;;2.83;0.70;;;;;;;10.79;84.23;100395.91;5034238;28;20634;-74
2022/10/08 02:42:59;;;;;;;9.87;0.73;;;;;;;10.81;84.34;100390.94;5034223;28;20203;-74
2022/10/08 02:45:33;;;;;;;8.17;0.77;;;;;;;10.79;84.55;100395.91;5034293;28;20172;-73
2022/10/08 02:48:04;;;;;;;1.37;1.27;;;;;;;10.71;84.83;100395.56;5034149;28;20163;-74
2022/10/08 02:50:33;;;;;;;3.20;1.40;;;;;;;10.84;84.95;100384.84;5033994;28;20182;-73
2022/10/08 02:52:59;;;;;;;0.70;0.70;;;;;;;10.83;84.50;100386.75;5033957;28;20215;-73
2022/10/08 02:55:43;;;;;;;4.83;1.40;;;;;;;10.82;85.11;100376.16;5034059;28;20176;-73
2022/10/08 02:58:11;;;;;;;1.23;1.03;;;;;;;10.83;85.08;100385.97;5033892;28;20176;-74
2022/10/08 03:00:43;;;;;;;0.60;0.60;;;;;;;10.92;84.83;100381.34;5026976;28;20189;-73
2022/10/08 03:03:12;;;;;;;6.80;1.57;;;;;;;10.94;84.21;100381.84;5013892;28;20188;-73
2022/10/08 03:05:40;;;;;;;4.33;1.07;;;;;;;10.99;84.44;100384.41;5012523;28;20181;-74
2022/10/08 03:08:09;;;;;;;6.03;1.80;;;;;;;10.90;84.51;100375.41;5014031;28;20231;-74
2022/10/08 03:10:37;;;;;;;4.10;2.93;;;;;;;10.92;84.72;100378.59;5014136;28;20222;-73
2022/10/08 03:13:04;;;;;;;13.67;1.43;;;;;;;10.89;84.88;100373.78;5013522;28;20200;-74
2022/10/08 03:15:32;;;;;;;0.93;0.70;;;;;;;10.91;84.93;100379.72;5014043;28;20298;-73
2022/10/08 03:17:59;;;;;;;3.40;0.20;;;;;;;10.94;84.88;100376.38;5013767;28;20180;-73
2022/10/08 03:20:25;;;;;;;2.37;1.30;;;;;;;10.96;84.93;100376.84;5013766;28;20181;-73
2022/10/08 03:22:53;;;;;;;0.97;0.90;;;;;;;10.95;84.59;100370.56;5028917;28;20180;-73
2022/10/08 03:25:18;;;;;;;2.20;1.70;;;;;;;10.94;84.69;100379.09;5013593;28;20415;-73
2022/10/08 03:27:44;;;;;;;3.57;1.37;;;;;;;10.96;84.49;100364.00;5027659;28;20202;-73
2022/10/08 03:30:10;;;;;;;1.47;1.37;;;;;;;10.93;84.92;100366.56;5033537;28;20187;-74
2022/10/08 03:32:35;;;;;;;1.27;0.57;;;;;;;10.87;85.11;100365.91;5035667;28;20214;-74
2022/10/08 03:35:00;;;;;;;4.17;0.60;;;;;;;10.85;85.20;100361.84;5032145;28;20207;-73
2022/10/08 03:37:26;;;;;;;3.37;1.27;;;;;;;10.83;85.45;100350.44;5033138;28;20518;-73
2022/10/08 03:39:51;;;;;;;0.93;0.70;;;;;;;10.84;85.77;100366.50;5032417;28;20174;-74
2022/10/08 03:42:16;;;;;;;1.33;1.00;;;;;;;10.86;86.01;100356.09;5033021;28;20601;-73
2022/10/08 03:44:41;;;;;;;2.37;1.13;;;;;;;10.85;85.90;100357.22;5032991;28;20184;-74
2022/10/08 03:47:07;;;;;;;1.80;1.47;;;;;;;10.81;85.98;100352.66;5032773;28;20176;-73
2022/10/08 03:49:32;;;;;;;4.20;2.07;;;;;;;10.82;86.14;100354.28;5033243;28;20266;-73
2022/10/08 03:51:57;;;;;;;3.47;1.03;;;;;;;10.79;86.43;100357.66;5033358;28;20184;-73
2022/10/08 03:54:23;;;;;;;1.67;0.90;;;;;;;10.83;86.57;100353.97;5015206;28;20218;-73
2022/10/08 03:56:48;;;;;;;0.37;0.37;;;;;;;10.85;86.42;100345.44;5031412;28;20569;-74
2022/10/08 03:59:13;;;;;;;0.83;0.57;;;;;;;10.78;86.55;100348.66;5033019;28;20587;-74
2022/10/08 04:01:39;;;;;;;3.50;1.90;;;;;;;10.75;86.58;100348.47;5032893;28;20374;-74
2022/10/08 04:04:04;;;;;;;18.00;1.17;;;;;;;10.71;87.10;100346.38;5032597;28;20195;-73
2022/10/08 04:06:29;;;;;;;3.40;0.67;;;;;;;10.69;87.04;100356.00;5032649;28;20171;-73
2022/10/08 04:08:59;;;;;;;1.67;1.57;;;;;;;10.65;87.41;100344.88;5032786;28;20647;-74
2022/10/08 04:11:26;;;;;;;2.70;0.90;;;;;;;10.60;87.30;100355.97;5014501;28;20811;-73
2022/10/08 04:13:51;;;;;;;2.13;0.67;;;;;;;10.59;87.89;100337.97;5032597;28;20311;-73
2022/10/08 04:16:17;;;;;;;5.03;0.83;;;;;;;10.55;88.23;100347.88;5032226;28;20610;-73
2022/10/08 04:18:43;;;;;;;0.53;0.37;;;;;;;10.50;88.15;100353.50;5032490;28;20187;-74
2022/10/08 04:21:11;;;;;;;2.37;1.60;;;;;;;10.44;88.93;100362.94;5032654;28;20254;-73
2022/10/08 04:23:39;;;;;;;1.10;0.50;;;;;;;10.36;89.82;100360.97;5032445;28;20729;-73
2022/10/08 04:26:05;;;;;;;2.40;0.50;;;;;;;10.33;89.88;100356.13;5031973;28;20551;-74
2022/10/08 04:28:31;;;;;;;8.80;0.40;;;;;;;10.30;90.48;100367.69;5032219;28;20176;-74
2022/10/08 04:30:59;;;;;;;0.70;0.60;;;;;;;10.31;90.35;100377.47;5032397;28;20231;-74
2022/10/08 04:33:26;;;;;;;4.90;2.30;;;;;;;10.33;90.72;100373.31;5014410;28;20200;-74
2022/10/08 04:35:52;;;;;;;1.10;0.80;;;;;;;10.35;90.45;100375.72;5031826;28;20167;-73
2022/10/08 04:38:17;;;;;;;0.23;0.23;;;;;;;10.36;90.62;100380.88;5014360;28;20539;-73
2022/10/08 04:40:43;;;;;;;0.83;0.40;;;;;;;10.35;90.95;100373.00;5032040;28;20172;-73
2022/10/08 04:43:08;;;;;;;0.30;0.30;;;;;;;10.34;90.66;100374.91;5031993;28;20267;-74
2022/10/08 04:45:33;;;;;;;0.30;0.30;;;;;;;10.37;91.03;100378.94;5031862;28;20164;-74
2022/10/08 04:47:58;;;;;;;7.77;0.60;;;;;;;10.39;90.89;100379.44;5031786;28;20168;-73
2022/10/08 04:50:24;;;;;;;0.57;0.57;;;;;;;10.40;91.09;100383.78;5031534;28;20691;-74
2022/10/08 04:52:49;;;;;;;1.20;0.63;;;;;;;10.42;91.60;100378.84;5031066;28;20286;-74
2022/10/08 04:55:14;;;;;;;0.20;0.20;;;;;;;10.47;91.63;100380.63;5031689;28;20175;-74
2022/10/08 04:57:40;;;;;;;2.73;1.17;;;;;;;10.54;91.58;100378.25;5031573;28;20179;-73
2022/10/08 05:00:06;;;;;;;1.00;0.77;;;;;;;10.58;91.40;100387.44;5013721;28;20184;-74
2022/10/08 05:02:32;;;;;;;5.07;0.83;;;;;;;10.65;91.36;100385.06;5031308;28;20543;-74
2022/10/08 05:04:57;;;;;;;0.67;0.63;;;;;;;10.70;91.18;100387.66;5031457;28;20172;-74
2022/10/08 05:07:23;;;;;;;1.43;0.63;;;;;;;10.71;90.91;100392.03;5031375;28;20185;-74
2022/10/08 05:09:48;;;;;;;0.30;0.10;;;;;;;10.74;90.76;100391.41;5013752;28;20635;-74
2022/10/08 05:12:14;;;;;;;0.10;0.10;;;;;;;10.77;90.77;100390.75;5031243;28;20627;-73
2022/10/08 05:14:39;;;;;;;1.03;1.03;;;;;;;10.81;91.29;100389.00;5031322;28;20199;-73
2022/10/08 05:17:04;;;;;;;0.43;0.43;;;;;;;10.85;91.40;100391.91;5031589;28;20199;-73
2022/10/08 05:19:29;;;;;;;1.23;1.13;;;;;;;10.87;91.47;100400.63;5031373;28;20199;-74
2022/10/08 05:21:55;;;;;;;2.77;1.13;;;;;;;10.88;91.83;100405.78;5013609;28;20538;-74
2022/10/08 05:24:20;;;;;;;6.33;0.20;;;;;;;10.91;91.23;100401.59;5031336;28;20187;-74
2022/10/08 05:26:45;;;;;;;0.03;0.03;;;;;;;10.96;91.39;100401.44;5031069;28;20869;-74
2022/10/08 05:29:11;;;;;;;0.00;0.00;;;;;;;10.97;90.99;100397.59;5031231;28;20172;-74
2022/10/08 05:31:37;;;;;;;0.60;0.47;;;;;;;11.00;91.49;100399.72;5031059;28;20184;-73
2022/10/08 05:34:03;;;;;;;0.30;0.30;;;;;;;11.05;91.43;100402.31;5031008;28;20231;-74
2022/10/08 05:36:30;;;;;;;0.00;0.00;;;;;;;11.05;91.68;100410.50;5031008;28;20176;-74
2022/10/08 05:38:58;;;;;;;0.50;0.30;;;;;;;11.11;91.51;100422.91;5031004;28;20695;-74
2022/10/08 05:41:26;;;;;;;1.07;0.53;;;;;;;11.13;91.82;100420.66;5030926;28;20165;-74
2022/10/08 05:43:53;;;;;;;3.10;0.83;;;;;;;11.15;91.64;100423.91;5031072;28;20176;-74
2022/10/08 05:46:19;;;;;;;0.23;0.23;;;;;;;11.16;91.42;100438.38;5030558;28;20518;-74
2022/10/08 05:48:45;;;;;;;1.10;0.43;;;;;;;11.18;91.52;100433.41;5031046;28;20184;-73
2022/10/08 05:51:13;;;;;;;0.53;0.53;;;;;;;11.18;91.94;100431.47;5030783;28;20183;-73
2022/10/08 05:53:42;;;;;;;0.50;0.50;;;;;;;11.17;92.01;100440.81;5018180;28;20213;-74
2022/10/08 05:56:09;;;;;;;0.87;0.63;;;;;;;11.17;91.61;100443.53;5010833;28;20185;-73
2022/10/08 05:58:36;;;;;;;0.00;0.00;;;;;;;11.16;91.90;100443.84;5010946;28;20215;-74
2022/10/08 06:01:05;;;;;;;0.97;0.90;;;;;;;11.15;92.10;100451.25;5011001;28;20180;-74
2022/10/08 06:03:30;;;;;;;0.73;0.73;;;;;;;11.08;92.98;100445.41;5010713;28;20191;-72
2022/10/08 06:06:04;;;;;;;2.13;0.20;;;;;;;11.01;94.06;100454.09;5010761;28;20185;-72
2022/10/08 06:08:30;;;;;;;5.83;0.60;;;;;;;10.97;95.05;100457.75;5010967;28;20613;-72
2022/10/08 06:10:56;;;;;;;2.73;1.60;;;;;;;10.93;95.33;100460.28;5011075;28;20180;-72
2022/10/08 06:13:22;;;;;;;1.93;0.90;;;;;;;10.90;96.46;100457.38;5030606;28;20234;-72
2022/10/08 06:15:55;;;;;;;2.90;1.23;;;;;;;10.76;98.08;100462.94;5030409;28;20259;-71
2022/10/08 06:18:20;;;;;;;0.67;0.67;;;;;;;10.65;99.52;100458.84;5030647;28;20178;-71
2022/10/08 06:20:45;;;;;;;2.70;2.50;;;;;;;10.60;100.00;100467.16;5030544;28;20176;-72
2022/10/08 06:23:10;;;;;;;3.10;0.60;;;;;;;10.52;100.00;100468.72;5030534;28;20619;-72
2022/10/08 06:25:36;;;;;;;0.20;0.20;;;;;;;10.45;100.00;100476.53;5028948;28;20176;-72
2022/10/08 06:28:01;;;;;;;1.90;1.80;;;;;;;10.36;100.00;100479.19;5030865;28;20648;-72
2022/10/08 06:30:27;;;;;;;0.00;0.00;;;;;;;10.34;100.00;100469.69;5030805;28;20506;-71
2022/10/08 06:32:52;;;;;;;0.83;0.83;;;;;;;10.31;100.00;100476.59;5030497;28;20727;-72
2022/10/08 06:35:17;;;;;;;10.43;1.00;;;;;;;10.29;100.00;100475.28;5030373;28;20619;-72
2022/10/08 06:37:46;;;;;;;3.60;2.47;;;;;;;10.19;100.00;100470.81;5030415;28;20184;-72
2022/10/08 06:40:12;;;;;;;0.20;0.20;;;;;;;10.18;100.00;100465.69;5030153;28;20747;-72
2022/10/08 06:42:37;;;;;;;2.27;1.10;;;;;;;10.11;100.00;100450.50;5030400;28;20258;-72
2022/10/08 06:45:03;;;;;;;6.23;2.30;;;;;;;10.12;100.00;100441.19;5030364;28;20183;-70
2022/10/08 06:47:28;;;;;;;4.07;2.50;;;;;;;10.11;100.00;100439.59;5029763;28;20382;-70
2022/10/08 06:49:54;;;;;;;0.27;0.27;;;;;;;10.14;100.00;100454.56;5025816;28;20231;-71
2022/10/08 06:52:19;;;;;;;0.43;0.37;;;;;;;10.19;100.00;100459.91;5010682;28;20305;-71
2022/10/08 06:54:44;;;;;;;0.60;0.60;;;;;;;10.29;100.00;100461.63;5010351;28;20258;-71
2022/10/08 06:57:09;;;;;;;1.77;1.67;;;;;;;10.36;100.00;100451.06;5009320;28;20562;-71
2022/10/08 06:59:35;;;;;;;0.00;0.00;;;;;;;10.43;100.00;100440.53;5010549;28;20181;-71
2022/10/08 07:02:00;;;;;;;2.30;2.10;;;;;;;10.50;100.00;100451.00;5010380;28;20185;-72
2022/10/08 07:04:25;;;;;;;10.03;2.37;;;;;;;10.46;100.00;100458.22;5025466;28;20199;-71
2022/10/08 07:06:51;;;;;;;3.90;2.83;;;;;;;10.45;100.00;100460.16;5010268;28;20259;-71
2022/10/08 07:09:16;;;;;;;2.13;1.93;;;;;;;10.42;100.00;100458.03;5010418;28;20223;-72
2022/10/08 07:11:41;;;;;;;2.30;1.80;;;;;;;10.47;100.00;100473.50;5025008;28;20250;-71
2022/10/08 07:14:06;;;;;;;12.63;2.37;;;;;;;10.43;100.00;100490.50;5010487;28;20287;-72
2022/10/08 07:16:32;;;;;;;6.80;2.93;;;;;;;10.45;100.00;100503.84;5015230;28;20184;-71
2022/10/08 07:18:57;;;;;;;1.07;1.07;;;;;;;10.48;100.00;100496.97;5014858;28;20189;-72
2022/10/08 07:21:23;;;;;;;4.63;2.03;;;;;;;10.49;100.00;100504.03;5014041;28;20191;-70
2022/10/08 07:23:49;;;;;;;0.57;0.23;;;;;;;10.51;100.00;100508.06;5013857;28;20718;-73
2022/10/08 07:26:25;;;;;;;1.20;1.00;;;;;;;10.56;100.00;100513.44;5028729;28;20191;-71
2022/10/08 07:28:54;;;;;;;0.50;0.50;;;;;;;10.57;100.00;100520.50;5013797;28;20169;-72
2022/10/08 07:31:22;;;;;;;1.50;1.50;;;;;;;10.60;100.00;100530.81;5013703;28;20204;-73
2022/10/08 07:33:47;;;;;;;0.53;0.50;;;;;;;10.63;100.00;100530.19;5013541;28;20235;-72
2022/10/08 07:36:15;;;;;;;0.73;0.33;;;;;;;10.62;100.00;100535.97;5014217;28;20180;-71
2022/10/08 07:38:41;;;;;;;0.63;0.63;;;;;;;10.63;100.00;100535.66;5019434;28;20240;-71
2022/10/08 07:41:08;;;;;;;0.43;0.43;;;;;;;10.64;100.00;100531.81;5013573;28;20250;-71
2022/10/08 07:43:34;;;;;;;1.50;1.40;;;;;;;10.65;100.00;100529.88;5021849;28;20496;-72
2022/10/08 07:46:00;;;;;;;0.97;0.97;;;;;;;10.62;100.00;100534.03;5015593;28;20262;-71
2022/10/08 07:48:27;;;;;;;1.10;0.53;;;;;;;10.67;100.00;100549.50;5033466;28;20267;-71
2022/10/08 07:50:53;;;;;;;1.23;1.20;;;;;;;10.70;100.00;100546.13;5033197;28;20172;-71
2022/10/08 07:53:18;;;;;;;1.57;1.47;;;;;;;10.72;100.00;100561.13;5031773;28;20666;-71
2022/10/08 07:55:43;;;;;;;1.27;0.80;;;;;;;10.73;100.00;100568.22;5030592;28;20184;-71
2022/10/08 07:58:09;;;;;;;1.57;1.47;;;;;;;10.78;100.00;100570.00;5013726;28;20195;-71
2022/10/08 08:00:37;;;;;;;10.80;2.10;;;;;;;10.80;100.00;100575.97;5013994;28;20263;-71
2022/10/08 08:03:02;;;;;;;1.20;1.10;;;;;;;10.85;100.00;100580.50;5018797;28;20195;-71
2022/10/08 08:05:28;;;;;;;1.30;1.17;;;;;;;10.90;100.00;100581.19;5032854;28;20176;-70
2022/10/08 08:07:53;;;;;;;0.10;0.10;;;;;;;10.96;100.00;100584.59;5032762;28;20535;-71
2022/10/08 08:10:18;;;;;;;2.07;1.27;;;;;;;11.12;100.00;100585.84;5032741;28;20221;-71
2022/10/08 08:12:43;;;;;;;0.90;0.90;;;;;;;11.24;100.00;100588.03;5023606;28;20189;-71
2022/10/08 08:15:09;;;;;;;1.57;1.47;;;;;;;11.30;100.00;100579.38;5021533;28;20179;-71
2022/10/08 08:17:34;;;;;;;2.47;1.37;;;;;;;11.42;100.00;100583.44;5022653;28;20188;-71
2022/10/08 08:20:00;;;;;;;10.40;3.63;;;;;;;11.58;100.00;100601.91;5015706;28;20180;-71
2022/10/08 08:22:25;;;;;;;0.57;0.57;;;;;;;11.68;100.00;100602.75;5012730;28;20507;-72
2022/10/08 08:24:50;;;;;;;1.60;1.40;;;;;;;11.71;100.00;100600.19;5012545;28;20183;-71
2022/10/08 08:27:16;;;;;;;14.57;0.87;;;;;;;11.66;100.00;100613.22;5012584;28;20264;-71
2022/10/08 08:29:42;;;;;;;1.37;1.37;;;;;;;11.59;100.00;100619.16;4994656;28;20177;-71
2022/10/08 08:32:07;;;;;;;1.93;1.83;;;;;;;11.59;100.00;100625.41;5012453;28;20183;-71
2022/10/08 08:34:32;;;;;;;9.00;2.87;;;;;;;11.56;100.00;100620.56;5012502;28;20231;-71
2022/10/08 08:36:58;;;;;;;3.50;2.50;;;;;;;11.58;100.00;100634.75;5012424;28;20181;-70
2022/10/08 08:39:26;;;;;;;1.33;1.23;;;;;;;11.56;100.00;100642.44;5012461;28;20184;-71
2022/10/08 08:41:57;;;;;;;0.43;0.43;;;;;;;11.58;100.00;100642.16;5012323;28;20275;-70
2022/10/08 08:44:27;;;;;;;0.00;0.00;;;;;;;11.61;100.00;100644.25;4994775;28;20208;-71
2022/10/08 08:47:07;;;;;;;1.70;1.60;;;;;;;11.61;100.00;100650.53;5012707;28;20162;-71
2022/10/08 08:49:39;;;;;;;1.43;1.33;;;;;;;11.58;100.00;100650.38;5025089;28;20606;-71
2022/10/08 08:52:06;;;;;;;2.17;1.97;;;;;;;11.62;100.00;100663.09;5023156;28;20599;-71
2022/10/08 08:54:31;;;;;;;4.60;2.33;;;;;;;11.58;100.00;100667.59;5012104;28;20627;-71
2022/10/08 08:57:14;;;;;;;14.07;3.13;;;;;;;11.54;100.00;100669.31;5012164;28;20502;-71
2022/10/08 08:59:43;;;;;;;1.67;1.53;;;;;;;11.54;100.00;100680.25;5011923;28;20580;-71
2022/10/08 09:02:23;;;;;;;1.93;1.83;;;;;;;11.56;100.00;100675.28;5011946;28;20196;-71
2022/10/08 09:05:01;;;;;;;5.37;1.90;;;;;;;11.62;100.00;100678.72;5011906;28;20184;-71
2022/10/08 09:07:35;;;;;;;2.57;1.17;;;;;;;11.70;100.00;100675.22;5011751;28;20263;-72
2022/10/08 09:10:05;;;;;;;1.97;1.80;;;;;;;11.77;100.00;100681.06;5011904;28;20180;-71
2022/10/08 09:12:36;;;;;;;4.90;2.37;;;;;;;11.82;100.00;100688.34;5011768;28;20179;-71
2022/10/08 09:15:03;;;;;;;0.47;0.47;;;;;;;11.86;100.00;100681.13;5011817;28;20161;-74
2022/10/08 09:17:31;;;;;;;0.67;0.67;;;;;;;11.93;100.00;100683.44;5011404;28;20168;-72
2022/10/08 09:19:57;;;;;;;7.90;3.60;;;;;;;11.96;100.00;100683.59;5011610;28;20540;-71
2022/10/08 09:22:26;;;;;;;3.47;3.20;;;;;;;11.99;100.00;100673.94;5011703;28;20180;-71
2022/10/08 09:24:57;;;;;;;4.77;2.13;;;;;;;12.18;100.00;100674.53;5011445;28;20212;-71
2022/10/08 09:27:23;;;;;;;2.47;2.20;;;;;;;12.20;100.00;100669.53;5026478;28;20180;-73
2022/10/08 09:29:48;;;;;;;2.63;2.43;;;;;;;12.19;100.00;100676.13;5011728;28;20207;-73
2022/10/08 09:32:19;;;;;;;2.13;2.00;;;;;;;12.20;100.00;100675.00;5011824;28;20176;-74
2022/10/08 09:34:47;;;;;;;2.97;2.77;;;;;;;12.26;100.00;100683.88;5011395;28;20669;-74
2022/10/08 09:37:23;;;;;;;2.43;2.23;;;;;;;12.24;99.43;100686.13;5010902;28;20177;-74
2022/10/08 09:40:16;;;;;;;4.23;3.60;;;;;;;12.39;98.33;100689.25;5011247;28;20176;-75
2022/10/08 09:42:41;;;;;;;9.40;2.63;;;;;;;12.48;96.58;100690.09;5011145;28;20172;-74
2022/10/08 09:45:30;;;;;;;2.90;2.67;;;;;;;12.66;95.67;100698.38;5011156;28;20516;-74
2022/10/08 09:48:15;;;;;;;4.83;3.63;;;;;;;12.64;94.19;100689.66;5010758;28;20640;-74
2022/10/08 09:51:00;;;;;;;2.43;2.20;;;;;;;12.60;92.57;100703.19;5011034;28;20199;-74
2022/10/08 09:53:41;;;;;;;2.93;1.33;;;;;;;12.55;92.00;100703.31;5011241;28;20200;-74
2022/10/08 09:56:08;;;;;;;5.73;2.07;;;;;;;12.64;93.17;100712.41;5010674;28;20176;-75
2022/10/08 09:58:51;;;;;;;5.13;2.60;;;;;;;12.72;93.93;100705.31;5011148;28;20226;-75
2022/10/08 10:01:17;;;;;;;3.47;2.90;;;;;;;12.77;93.90;100714.19;5010958;28;20183;-74
2022/10/08 10:03:58;;;;;;;4.07;1.80;;;;;;;12.79;92.63;100705.66;5010756;28;20537;-74
2022/10/08 10:06:47;;;;;;;14.53;0.90;;;;;;;12.92;90.88;100714.88;5010805;28;20168;-75
2022/10/08 10:09:49;;;;;;;2.60;2.40;;;;;;;13.19;90.56;100711.06;5010712;28;20173;-75
2022/10/08 10:12:26;;;;;;;2.03;1.93;;;;;;;13.40;90.57;100712.03;5009714;28;20180;-75
2022/10/08 10:15:03;;;;;;;2.70;2.50;;;;;;;13.45;89.54;100717.34;5005124;28;20239;-73
2022/10/08 10:17:34;;;;;;;7.93;3.00;;;;;;;13.49;88.99;100723.81;5009080;28;20192;-74
2022/10/08 10:20:34;;;;;;;4.87;1.80;;;;;;;13.56;89.12;100721.38;5004474;28;20180;-73
2022/10/08 10:23:05;;;;;;;0.80;0.80;;;;;;;13.66;87.00;100707.31;5008123;28;20188;-74
2022/10/08 10:25:41;;;;;;;5.47;2.97;;;;;;;13.79;86.39;100718.44;4998786;28;20268;-74
2022/10/08 10:28:13;;;;;;;2.33;2.23;;;;;;;13.86;85.58;100718.72;4995918;28;20195;-75
2022/10/08 10:31:02;;;;;;;4.30;1.80;;;;;;;13.87;83.81;100712.09;5008850;28;20242;-74
2022/10/08 10:33:31;;;;;;;1.73;1.60;;;;;;;13.84;84.02;100712.78;4991020;28;20621;-74
2022/10/08 10:36:00;;;;;;;2.80;2.57;;;;;;;13.99;84.29;100720.47;5012742;28;20631;-74
2022/10/08 10:38:31;;;;;;;1.60;1.50;;;;;;;14.06;82.80;100720.00;5030371;28;20168;-74
2022/10/08 10:41:05;;;;;;;2.33;1.90;;;;;;;14.06;81.05;100709.81;5030401;28;20183;-73
2022/10/08 10:43:44;;;;;;;2.03;1.10;;;;;;;14.11;80.49;100714.31;5030247;28;20176;-74
2022/10/08 10:46:31;;;;;;;2.57;1.90;;;;;;;13.96;79.59;100710.97;5030233;28;20471;-73
2022/10/08 10:48:57;;;;;;;0.83;0.83;;;;;;;13.97;77.97;100711.78;5031992;28;20636;-74
2022/10/08 10:51:53;;;;;;;2.30;1.33;;;;;;;13.89;77.39;100715.34;5034087;28;20180;-75
2022/10/08 10:54:44;;;;;;;1.20;0.70;;;;;;;13.79;77.55;100715.69;5033962;28;20231;-73
2022/10/08 10:57:30;;;;;;;1.50;1.40;;;;;;;13.80;79.55;100723.59;5017017;28;20650;-73
2022/10/08 11:00:01;;;;;;;1.40;1.13;;;;;;;13.74;79.51;100721.34;5006719;28;20540;-74
2022/10/08 11:02:32;;;;;;;0.83;0.60;;;;;;;13.80;78.55;100723.59;5012114;28;20594;-74
2022/10/08 11:05:10;;;;;;;0.90;0.73;;;;;;;13.87;79.81;100717.59;5013204;28;20181;-74
2022/10/08 11:07:47;;;;;;;5.73;1.20;;;;;;;14.15;80.49;100716.06;4995605;28;20525;-73
2022/10/08 11:10:24;;;;;;;8.67;1.27;;;;;;;14.39;78.80;100722.94;5011764;28;20176;-74
2022/10/08 11:13:16;;;;;;;5.47;0.83;;;;;;;14.60;77.22;100712.81;5011765;28;20625;-73
2022/10/08 11:15:51;;;;;;;8.90;1.53;;;;;;;14.69;76.43;100715.53;5012993;28;20192;-74
2022/10/08 11:18:54;;;;;;;2.80;0.67;;;;;;;14.92;73.93;100716.06;4995847;28;20183;-73
2022/10/08 11:21:22;;;;;;;2.03;1.20;;;;;;;14.83;72.21;100716.09;4952412;29;20202;-73
2022/10/08 11:24:12;;;;;;;4.43;1.30;;;;;;;14.79;72.62;100715.97;5002391;28;20287;-74
2022/10/08 11:26:54;;;;;;;0.70;0.70;;;;;;;14.68;73.22;100716.69;5013185;28;20183;-74
2022/10/08 11:29:49;;;;;;;1.60;1.33;;;;;;;14.95;73.98;100723.63;5013288;28;20194;-73
2022/10/08 11:32:16;;;;;;;3.00;1.80;;;;;;;14.77;72.06;100718.25;5012635;28;20616;-74
2022/10/08 11:34:52;;;;;;;7.27;1.87;;;;;;;14.69;71.89;100721.03;5013096;28;20717;-74
2022/10/08 11:37:23;;;;;;;1.80;1.70;;;;;;;14.64;73.09;100713.00;5012907;28;20176;-73
2022/10/08 11:40:03;;;;;;;0.67;0.43;;;;;;;14.69;73.51;100719.09;5013141;28;20627;-74